AirNav   Everest Fuels
 
 969 users online  

ID8 Marble Creek Airport
Challis, Idaho, USA

GOING TO CHALLIS?


FAA INFORMATION EFFECTIVE 25 FEBRUARY 2021

Location

FAA Identifier: ID8
Lat/Long: 44-46-24.5000N 114-59-07.0000W
44-46.408333N 114-59.116667W
44.7734722,-114.9852778
(estimated)
Elevation: 4685 ft. / 1428 m (estimated)
From city: 36 miles WNW of CHALLIS, ID
Time zone: UTC -7 (UTC -6 during Daylight Saving Time)
Zip code: 83677

Airport Operations

Airport use: Open to the public
Activation date: 09/2019
Control tower: no
ARTCC: SALT LAKE CITY CENTER
FSS: BOISE FLIGHT SERVICE STATION
NOTAMs facility: BOI (NOTAM-D service available)
Attendance: 
Segmented circle: no

Airport Communications

CTAF: 122.9

Airport Services

Runway Information

Runway 4/22

Dimensions: 1160 x 20 ft. / 354 x 6 m
Surface: turf/dirt, in fair condition
FAIR
RUNWAY 4  RUNWAY 22
Latitude: 44-46.333333N44-46.483333N
Longitude: 114-59.200000W114-59.033333W
Elevation: 4662.0 ft.4685.0 ft.
Traffic pattern: leftleft
Obstructions: 50 ft. hill, 375 ft. from runway, 8:1 slope to clear25 ft. trees, 180 ft. from runway, 8:1 slope to clear

Airport Ownership and Management from official FAA records

Ownership: Privately-owned
Owner: IDAHO DEPARTMENT OF FISH AND GAME
600 S. WALNUT
BOISE, ID 83707
Phone 208-334-3700
Manager: TOM CURET
99 HWY 93 N
SALMON, ID 83467
Phone 208-756-2271

Airport Operational Statistics

Aircraft based on the field: 1
Single engine airplanes: 1
    

Additional Remarks

OWNER DESIRES AP BE CHARTED.
RWY END 4 SFC COND IS DOMINATED BY SOFT SANDY SOIL FOR THE FIRST 350 FT-400FT
NO WINT MAINT.
USE AT OWN RISK; RWY IS VERY SHRT AND VERY CHALLENGING.
FOR CD CTC SALT LAKE ARTCC AT 1-801-320-2568.
RWY IS NOT MKD.
TREES & TRRN ON APCH TO BOTH RWY ENDS.
BIG GAME ANIMALS & STOCK ON AND IN VCNTY OF RWY.
RWY IS A VERY SHRT & CHALLENGING STRIP DUE TO HI RSG TRRN & TREES; RCMD FOR USE ONLY BY EXPERIENCED & PROPERLY TRND BACKCOUNTRY PILOTS WITH THE RIGHT EQPT SUITABLE FOR THIS ENVIRONMENT. DUE TO HI DENSITY ALT., ERY MRMG & LATE EVE OPS IS RCMD DURG SUMMER MONTHS.
ARPT LCTD IN DP CANYON & IS SRND BY HI, TIMBERED, MTOUS TRRN.

Instrument Procedures

There are no published instrument procedures at ID8.

Some nearby airports with instrument procedures:

KMYL - Mc Call Municipal Airport (48 nm W)
KSMN - Lemhi County Airport (51 nm NE)
KSUN - Friedman Memorial Airport (82 nm S)
KGIC - Idaho County Airport (85 nm NW)
KBOI - Boise Air Terminal/Gowen Field (90 nm SW)
 
Loc | Ops | Rwys | IFR | FBO | Links
Com | Nav | Svcs | Stats | Notes
Aerial photo
No photo
 
Airport distance calculator
Flying to Marble Creek Airport? Find the distance to fly.

From to ID8

Sunrise and sunset
Times for 26-Feb-2021
 Local
(UTC-7)
 Zulu
(UTC)
Morning civil twilight06:5413:54
Sunrise07:2414:24
Sunset18:2201:22
Evening civil twilight18:5201:52

Current date and time
Zulu (UTC)  26-Feb-2021 23:20:06
Local (UTC-7)  26-Feb-2021 16:20:06
 
METAR
KLLJ 
36nm SE 
262255Z AUTO 08006KT 10SM FEW070 SCT090 BKN110 M02/M08 A2960 RMK AO2 SNE23 SLP049 P0000 T10171078
KSNT 
36nm S 
262251Z AUTO 34010G15KT M04/M11 A2964 RMK AO1 SLP040 T10441106
KMYL 
48nm W 
262251Z AUTO 28007KT 10SM SCT017 BKN029 BKN036 M03/M07 A2969 RMK AO2 SNE44 SLP090 P0001 T10331072
TAF
KMYL 
48nm W 
262138Z 2622/2718 27005KT 1SM -SN BR OVC025 FM270100 VRB06KT 1SM -SN BR OVC015 FM271500 22002KT 1/2SM -SN FZFG OVC015
NOTAMs
Click for the latest NOTAMs
NOTAMs are issued by the DoD/FAA and will open in a separate window not controlled by AirNav.

 

 
 

Would you like to see your business listed on this page?

 If your business provides an interesting product or service to pilots, flight crews, aircraft, or users of the Marble Creek Airport, you should consider listing it here.  To start the listing process, click on the button below
 
Add a business
 

Other Pages about Marble Creek Airport

Update a link
 
Copyright © AirNav, LLC. All rights reserved. Privacy Policy  Contact